sensor_id;sensor_type;location;lat;lon;timestamp;P1;durP1;ratioP1;P2;durP2;ratioP2
63534;SDS011;55128;50.230;18.944;2022-10-17T00:00:52;47.50;;;32.17;;
63534;SDS011;55128;50.230;18.944;2022-10-17T00:05:54;51.20;;;34.63;;
63534;SDS011;55128;50.230;18.944;2022-10-17T00:10:55;50.97;;;35.30;;
63534;SDS011;55128;50.230;18.944;2022-10-17T00:16:01;47.60;;;33.65;;
63534;SDS011;55128;50.230;18.944;2022-10-17T00:21:02;47.78;;;33.30;;
63534;SDS011;55128;50.230;18.944;2022-10-17T00:26:03;49.97;;;34.88;;
63534;SDS011;55128;50.230;18.944;2022-10-17T00:31:05;44.63;;;30.92;;
63534;SDS011;55128;50.230;18.944;2022-10-17T00:36:08;44.97;;;31.10;;
63534;SDS011;55128;50.230;18.944;2022-10-17T00:41:16;45.67;;;32.22;;
63534;SDS011;55128;50.230;18.944;2022-10-17T00:46:18;47.17;;;33.45;;
63534;SDS011;55128;50.230;18.944;2022-10-17T00:51:20;46.17;;;30.92;;
63534;SDS011;55128;50.230;18.944;2022-10-17T00:56:37;48.63;;;33.83;;
63534;SDS011;55128;50.230;18.944;2022-10-17T01:01:40;43.88;;;31.65;;
63534;SDS011;55128;50.230;18.944;2022-10-17T01:06:42;40.20;;;29.40;;
63534;SDS011;55128;50.230;18.944;2022-10-17T01:11:55;39.13;;;28.40;;
63534;SDS011;55128;50.230;18.944;2022-10-17T01:22:42;42.63;;;29.70;;
63534;SDS011;55128;50.230;18.944;2022-10-17T01:33:05;40.88;;;30.15;;
63534;SDS011;55128;50.230;18.944;2022-10-17T01:38:13;45.78;;;32.85;;
63534;SDS011;55128;50.230;18.944;2022-10-17T01:43:40;40.00;;;30.52;;
63534;SDS011;55128;50.230;18.944;2022-10-17T01:48:48;44.78;;;30.08;;
63534;SDS011;55128;50.230;18.944;2022-10-17T01:53:51;40.03;;;28.63;;
63534;SDS011;55128;50.230;18.944;2022-10-17T01:58:59;30.00;;;23.23;;
63534;SDS011;55128;50.230;18.944;2022-10-17T02:04:04;38.90;;;27.27;;
63534;SDS011;55128;50.230;18.944;2022-10-17T02:09:40;40.55;;;27.60;;
63534;SDS011;55128;50.230;18.944;2022-10-17T02:14:52;50.35;;;34.90;;
63534;SDS011;55128;50.230;18.944;2022-10-17T02:30:49;36.15;;;26.58;;
63534;SDS011;55128;50.230;18.944;2022-10-17T02:35:53;43.67;;;32.72;;
63534;SDS011;55128;50.230;18.944;2022-10-17T02:41:00;47.05;;;32.45;;
63534;SDS011;55128;50.230;18.944;2022-10-17T02:46:01;41.00;;;30.65;;
63534;SDS011;55128;50.230;18.944;2022-10-17T02:56:41;43.60;;;32.63;;
63534;SDS011;55128;50.230;18.944;2022-10-17T03:01:54;40.55;;;29.92;;
63534;SDS011;55128;50.230;18.944;2022-10-17T03:06:54;40.90;;;29.45;;
63534;SDS011;55128;50.230;18.944;2022-10-17T03:11:55;39.70;;;30.40;;
63534;SDS011;55128;50.230;18.944;2022-10-17T03:16:56;42.88;;;31.98;;
63534;SDS011;55128;50.230;18.944;2022-10-17T03:21:56;43.75;;;33.22;;
63534;SDS011;55128;50.230;18.944;2022-10-17T03:26:57;47.42;;;33.70;;
63534;SDS011;55128;50.230;18.944;2022-10-17T03:31:57;41.78;;;30.85;;
63534;SDS011;55128;50.230;18.944;2022-10-17T03:36:58;43.38;;;32.00;;
63534;SDS011;55128;50.230;18.944;2022-10-17T03:41:58;50.25;;;34.72;;
63534;SDS011;55128;50.230;18.944;2022-10-17T03:46:59;43.47;;;32.65;;
63534;SDS011;55128;50.230;18.944;2022-10-17T03:51:59;42.53;;;30.80;;
63534;SDS011;55128;50.230;18.944;2022-10-17T03:57:00;42.50;;;31.63;;
63534;SDS011;55128;50.230;18.944;2022-10-17T04:02:01;48.35;;;35.13;;
63534;SDS011;55128;50.230;18.944;2022-10-17T04:07:01;44.50;;;32.75;;
63534;SDS011;55128;50.230;18.944;2022-10-17T04:12:02;49.45;;;40.25;;
63534;SDS011;55128;50.230;18.944;2022-10-17T04:17:03;55.03;;;44.72;;
63534;SDS011;55128;50.230;18.944;2022-10-17T04:22:04;43.42;;;31.73;;
63534;SDS011;55128;50.230;18.944;2022-10-17T04:27:07;48.20;;;35.55;;
63534;SDS011;55128;50.230;18.944;2022-10-17T04:32:08;45.85;;;34.58;;
63534;SDS011;55128;50.230;18.944;2022-10-17T04:37:08;47.17;;;32.00;;
63534;SDS011;55128;50.230;18.944;2022-10-17T04:42:09;46.15;;;33.33;;
63534;SDS011;55128;50.230;18.944;2022-10-17T04:47:09;60.92;;;37.83;;
63534;SDS011;55128;50.230;18.944;2022-10-17T04:52:10;46.50;;;32.80;;
63534;SDS011;55128;50.230;18.944;2022-10-17T04:57:11;41.72;;;30.63;;
63534;SDS011;55128;50.230;18.944;2022-10-17T05:02:11;44.20;;;32.67;;
63534;SDS011;55128;50.230;18.944;2022-10-17T05:07:12;52.70;;;38.75;;
63534;SDS011;55128;50.230;18.944;2022-10-17T05:12:12;48.33;;;32.65;;
63534;SDS011;55128;50.230;18.944;2022-10-17T05:17:13;45.70;;;34.15;;
63534;SDS011;55128;50.230;18.944;2022-10-17T05:22:13;47.80;;;33.20;;
63534;SDS011;55128;50.230;18.944;2022-10-17T05:27:14;52.08;;;39.10;;
63534;SDS011;55128;50.230;18.944;2022-10-17T05:32:15;49.63;;;37.33;;
63534;SDS011;55128;50.230;18.944;2022-10-17T05:37:16;63.03;;;45.75;;
63534;SDS011;55128;50.230;18.944;2022-10-17T05:42:16;51.60;;;38.42;;
63534;SDS011;55128;50.230;18.944;2022-10-17T05:47:17;51.80;;;36.60;;
63534;SDS011;55128;50.230;18.944;2022-10-17T05:52:17;52.00;;;38.28;;
63534;SDS011;55128;50.230;18.944;2022-10-17T05:57:18;44.75;;;33.20;;
63534;SDS011;55128;50.230;18.944;2022-10-17T06:02:19;50.35;;;38.58;;
63534;SDS011;55128;50.230;18.944;2022-10-17T06:07:20;55.63;;;43.92;;
63534;SDS011;55128;50.230;18.944;2022-10-17T06:12:21;52.78;;;44.08;;
63534;SDS011;55128;50.230;18.944;2022-10-17T06:17:21;43.05;;;33.95;;
63534;SDS011;55128;50.230;18.944;2022-10-17T06:22:22;34.78;;;30.55;;
63534;SDS011;55128;50.230;18.944;2022-10-17T06:27:23;40.30;;;32.08;;
63534;SDS011;55128;50.230;18.944;2022-10-17T06:32:23;39.58;;;34.75;;
63534;SDS011;55128;50.230;18.944;2022-10-17T06:37:24;36.67;;;32.72;;
63534;SDS011;55128;50.230;18.944;2022-10-17T06:42:24;33.65;;;29.92;;
63534;SDS011;55128;50.230;18.944;2022-10-17T06:47:25;32.00;;;27.73;;
63534;SDS011;55128;50.230;18.944;2022-10-17T06:52:26;35.33;;;31.60;;
63534;SDS011;55128;50.230;18.944;2022-10-17T06:57:26;32.72;;;29.10;;
63534;SDS011;55128;50.230;18.944;2022-10-17T07:02:27;36.03;;;31.05;;
63534;SDS011;55128;50.230;18.944;2022-10-17T07:07:31;34.30;;;29.33;;
63534;SDS011;55128;50.230;18.944;2022-10-17T07:12:31;25.60;;;21.83;;
63534;SDS011;55128;50.230;18.944;2022-10-17T07:17:32;24.00;;;21.33;;
63534;SDS011;55128;50.230;18.944;2022-10-17T07:22:33;22.10;;;19.58;;
63534;SDS011;55128;50.230;18.944;2022-10-17T07:27:33;16.88;;;15.18;;
63534;SDS011;55128;50.230;18.944;2022-10-17T07:32:34;16.75;;;15.02;;
63534;SDS011;55128;50.230;18.944;2022-10-17T07:37:35;16.10;;;14.40;;
63534;SDS011;55128;50.230;18.944;2022-10-17T07:42:36;17.33;;;15.13;;
63534;SDS011;55128;50.230;18.944;2022-10-17T07:47:37;16.40;;;14.67;;
63534;SDS011;55128;50.230;18.944;2022-10-17T07:52:37;16.85;;;14.73;;
63534;SDS011;55128;50.230;18.944;2022-10-17T07:57:38;18.60;;;14.63;;
63534;SDS011;55128;50.230;18.944;2022-10-17T08:02:39;18.13;;;16.17;;
63534;SDS011;55128;50.230;18.944;2022-10-17T08:07:40;20.30;;;15.23;;
63534;SDS011;55128;50.230;18.944;2022-10-17T08:12:41;19.85;;;15.02;;
63534;SDS011;55128;50.230;18.944;2022-10-17T08:17:41;17.33;;;15.18;;
63534;SDS011;55128;50.230;18.944;2022-10-17T08:22:42;19.38;;;14.35;;
63534;SDS011;55128;50.230;18.944;2022-10-17T08:27:50;15.75;;;13.95;;
63534;SDS011;55128;50.230;18.944;2022-10-17T08:32:50;14.90;;;12.93;;
63534;SDS011;55128;50.230;18.944;2022-10-17T08:37:51;17.67;;;12.95;;
63534;SDS011;55128;50.230;18.944;2022-10-17T08:48:26;12.45;;;11.23;;
63534;SDS011;55128;50.230;18.944;2022-10-17T08:58:44;12.70;;;10.90;;
63534;SDS011;55128;50.230;18.944;2022-10-17T09:04:03;11.45;;;10.32;;
63534;SDS011;55128;50.230;18.944;2022-10-17T09:14:33;10.80;;;9.70;;
63534;SDS011;55128;50.230;18.944;2022-10-17T09:19:38;9.52;;;8.63;;
63534;SDS011;55128;50.230;18.944;2022-10-17T09:24:59;11.93;;;8.43;;
63534;SDS011;55128;50.230;18.944;2022-10-17T09:35:34;10.00;;;8.73;;
63534;SDS011;55128;50.230;18.944;2022-10-17T09:40:36;11.85;;;8.93;;
63534;SDS011;55128;50.230;18.944;2022-10-17T09:45:39;10.63;;;8.43;;
63534;SDS011;55128;50.230;18.944;2022-10-17T09:50:46;11.30;;;9.63;;
63534;SDS011;55128;50.230;18.944;2022-10-17T09:55:48;10.10;;;9.10;;
63534;SDS011;55128;50.230;18.944;2022-10-17T10:00:57;9.65;;;8.68;;
63534;SDS011;55128;50.230;18.944;2022-10-17T10:06:19;10.00;;;8.77;;
63534;SDS011;55128;50.230;18.944;2022-10-17T10:11:24;10.13;;;9.13;;
63534;SDS011;55128;50.230;18.944;2022-10-17T10:16:43;11.98;;;9.38;;
63534;SDS011;55128;50.230;18.944;2022-10-17T10:26:58;11.05;;;9.10;;
63534;SDS011;55128;50.230;18.944;2022-10-17T10:37:16;17.75;;;8.43;;
63534;SDS011;55128;50.230;18.944;2022-10-17T10:42:29;13.63;;;8.80;;
63534;SDS011;55128;50.230;18.944;2022-10-17T10:47:33;9.98;;;7.97;;
63534;SDS011;55128;50.230;18.944;2022-10-17T10:52:42;10.82;;;7.90;;
63534;SDS011;55128;50.230;18.944;2022-10-17T10:57:49;11.32;;;7.18;;
63534;SDS011;55128;50.230;18.944;2022-10-17T11:13:41;10.32;;;7.57;;
63534;SDS011;55128;50.230;18.944;2022-10-17T11:18:50;10.05;;;7.35;;
63534;SDS011;55128;50.230;18.944;2022-10-17T11:23:59;11.52;;;7.18;;
63534;SDS011;55128;50.230;18.944;2022-10-17T11:29:08;10.55;;;8.20;;
63534;SDS011;55128;50.230;18.944;2022-10-17T11:34:16;9.45;;;6.70;;
63534;SDS011;55128;50.230;18.944;2022-10-17T11:45:21;11.10;;;7.28;;
63534;SDS011;55128;50.230;18.944;2022-10-17T11:50:26;12.13;;;7.78;;
63534;SDS011;55128;50.230;18.944;2022-10-17T11:55:30;9.27;;;7.30;;
63534;SDS011;55128;50.230;18.944;2022-10-17T12:00:42;8.10;;;7.30;;
63534;SDS011;55128;50.230;18.944;2022-10-17T12:06:19;9.05;;;7.18;;
63534;SDS011;55128;50.230;18.944;2022-10-17T12:11:37;9.60;;;7.00;;
63534;SDS011;55128;50.230;18.944;2022-10-17T12:16:44;9.30;;;7.27;;
63534;SDS011;55128;50.230;18.944;2022-10-17T12:32:34;11.35;;;7.57;;
63534;SDS011;55128;50.230;18.944;2022-10-17T12:42:46;10.90;;;7.38;;
63534;SDS011;55128;50.230;18.944;2022-10-17T12:47:48;11.40;;;7.25;;
63534;SDS011;55128;50.230;18.944;2022-10-17T12:52:55;10.35;;;8.07;;
63534;SDS011;55128;50.230;18.944;2022-10-17T12:58:02;13.10;;;7.25;;
63534;SDS011;55128;50.230;18.944;2022-10-17T13:03:14;10.07;;;6.95;;
63534;SDS011;55128;50.230;18.944;2022-10-17T13:08:22;9.27;;;6.50;;
63534;SDS011;55128;50.230;18.944;2022-10-17T13:13:43;7.95;;;6.38;;
63534;SDS011;55128;50.230;18.944;2022-10-17T13:18:50;7.57;;;6.18;;
63534;SDS011;55128;50.230;18.944;2022-10-17T13:23:52;7.63;;;5.65;;
63534;SDS011;55128;50.230;18.944;2022-10-17T13:29:00;6.28;;;5.57;;
63534;SDS011;55128;50.230;18.944;2022-10-17T13:34:04;7.82;;;5.43;;
63534;SDS011;55128;50.230;18.944;2022-10-17T13:39:15;7.65;;;5.82;;
63534;SDS011;55128;50.230;18.944;2022-10-17T13:44:22;6.68;;;5.95;;
63534;SDS011;55128;50.230;18.944;2022-10-17T13:49:35;6.85;;;5.38;;
63534;SDS011;55128;50.230;18.944;2022-10-17T13:54:40;6.20;;;5.30;;
63534;SDS011;55128;50.230;18.944;2022-10-17T13:59:42;6.93;;;5.27;;
63534;SDS011;55128;50.230;18.944;2022-10-17T14:04:46;9.00;;;4.82;;
63534;SDS011;55128;50.230;18.944;2022-10-17T14:09:58;7.50;;;5.25;;
63534;SDS011;55128;50.230;18.944;2022-10-17T14:15:00;7.57;;;5.20;;
63534;SDS011;55128;50.230;18.944;2022-10-17T14:20:03;8.35;;;4.90;;
63534;SDS011;55128;50.230;18.944;2022-10-17T14:25:04;6.75;;;5.32;;
63534;SDS011;55128;50.230;18.944;2022-10-17T14:30:27;6.47;;;5.10;;
63534;SDS011;55128;50.230;18.944;2022-10-17T14:35:26;5.53;;;4.78;;
63534;SDS011;55128;50.230;18.944;2022-10-17T14:40:27;6.15;;;5.00;;
63534;SDS011;55128;50.230;18.944;2022-10-17T14:45:34;8.88;;;4.95;;
63534;SDS011;55128;50.230;18.944;2022-10-17T14:50:37;6.28;;;5.32;;
63534;SDS011;55128;50.230;18.944;2022-10-17T14:55:38;7.68;;;5.13;;
63534;SDS011;55128;50.230;18.944;2022-10-17T15:00:40;8.52;;;5.10;;
63534;SDS011;55128;50.230;18.944;2022-10-17T15:05:41;7.45;;;5.65;;
63534;SDS011;55128;50.230;18.944;2022-10-17T15:10:42;7.60;;;5.38;;
63534;SDS011;55128;50.230;18.944;2022-10-17T15:15:44;8.40;;;5.35;;
63534;SDS011;55128;50.230;18.944;2022-10-17T15:20:45;6.88;;;5.47;;
63534;SDS011;55128;50.230;18.944;2022-10-17T15:25:45;7.78;;;5.45;;
63534;SDS011;55128;50.230;18.944;2022-10-17T15:30:46;7.47;;;5.20;;
63534;SDS011;55128;50.230;18.944;2022-10-17T15:35:47;7.38;;;5.20;;
63534;SDS011;55128;50.230;18.944;2022-10-17T15:40:47;8.88;;;5.68;;
63534;SDS011;55128;50.230;18.944;2022-10-17T15:45:52;7.10;;;5.18;;
63534;SDS011;55128;50.230;18.944;2022-10-17T15:50:56;8.38;;;5.78;;
63534;SDS011;55128;50.230;18.944;2022-10-17T15:55:58;9.23;;;7.18;;
63534;SDS011;55128;50.230;18.944;2022-10-17T16:00:59;9.05;;;6.40;;
63534;SDS011;55128;50.230;18.944;2022-10-17T16:06:00;7.80;;;5.68;;
63534;SDS011;55128;50.230;18.944;2022-10-17T16:11:01;16.70;;;14.98;;
63534;SDS011;55128;50.230;18.944;2022-10-17T16:16:01;11.75;;;8.80;;
63534;SDS011;55128;50.230;18.944;2022-10-17T16:21:02;8.00;;;6.20;;
63534;SDS011;55128;50.230;18.944;2022-10-17T16:26:03;9.23;;;6.28;;
63534;SDS011;55128;50.230;18.944;2022-10-17T16:31:03;8.60;;;6.68;;
63534;SDS011;55128;50.230;18.944;2022-10-17T16:36:04;8.40;;;6.70;;
63534;SDS011;55128;50.230;18.944;2022-10-17T16:41:13;11.90;;;6.97;;
63534;SDS011;55128;50.230;18.944;2022-10-17T16:46:20;13.95;;;8.43;;
63534;SDS011;55128;50.230;18.944;2022-10-17T16:51:22;11.23;;;6.70;;
63534;SDS011;55128;50.230;18.944;2022-10-17T16:56:23;10.50;;;6.10;;
63534;SDS011;55128;50.230;18.944;2022-10-17T17:01:24;9.10;;;6.40;;
63534;SDS011;55128;50.230;18.944;2022-10-17T17:06:26;10.82;;;8.18;;
63534;SDS011;55128;50.230;18.944;2022-10-17T17:11:28;13.00;;;10.15;;
63534;SDS011;55128;50.230;18.944;2022-10-17T17:16:29;14.63;;;10.23;;
63534;SDS011;55128;50.230;18.944;2022-10-17T17:21:31;10.43;;;7.53;;
63534;SDS011;55128;50.230;18.944;2022-10-17T17:26:33;11.38;;;6.88;;
63534;SDS011;55128;50.230;18.944;2022-10-17T17:31:38;15.13;;;7.57;;
63534;SDS011;55128;50.230;18.944;2022-10-17T17:36:38;8.50;;;6.53;;
63534;SDS011;55128;50.230;18.944;2022-10-17T17:41:39;10.77;;;6.78;;
63534;SDS011;55128;50.230;18.944;2022-10-17T17:46:41;14.27;;;10.20;;
63534;SDS011;55128;50.230;18.944;2022-10-17T17:51:42;11.63;;;8.27;;
63534;SDS011;55128;50.230;18.944;2022-10-17T17:56:45;11.15;;;8.38;;
63534;SDS011;55128;50.230;18.944;2022-10-17T18:01:46;11.55;;;8.57;;
63534;SDS011;55128;50.230;18.944;2022-10-17T18:06:46;15.05;;;10.63;;
63534;SDS011;55128;50.230;18.944;2022-10-17T18:11:47;12.20;;;10.10;;
63534;SDS011;55128;50.230;18.944;2022-10-17T18:16:49;16.45;;;9.95;;
63534;SDS011;55128;50.230;18.944;2022-10-17T18:21:50;12.68;;;10.25;;
63534;SDS011;55128;50.230;18.944;2022-10-17T18:26:50;15.23;;;10.63;;
63534;SDS011;55128;50.230;18.944;2022-10-17T18:36:55;15.02;;;10.40;;
63534;SDS011;55128;50.230;18.944;2022-10-17T18:41:56;14.70;;;10.73;;
63534;SDS011;55128;50.230;18.944;2022-10-17T18:46:57;17.00;;;13.40;;
63534;SDS011;55128;50.230;18.944;2022-10-17T18:51:58;16.48;;;12.43;;
63534;SDS011;55128;50.230;18.944;2022-10-17T18:56:59;16.42;;;12.20;;
63534;SDS011;55128;50.230;18.944;2022-10-17T19:01:59;24.38;;;17.52;;
63534;SDS011;55128;50.230;18.944;2022-10-17T19:07:00;22.50;;;17.88;;
63534;SDS011;55128;50.230;18.944;2022-10-17T19:12:01;22.55;;;15.98;;
63534;SDS011;55128;50.230;18.944;2022-10-17T19:17:01;17.58;;;13.80;;
63534;SDS011;55128;50.230;18.944;2022-10-17T19:22:02;18.25;;;15.30;;
63534;SDS011;55128;50.230;18.944;2022-10-17T19:27:04;19.50;;;14.63;;
63534;SDS011;55128;50.230;18.944;2022-10-17T19:32:05;29.20;;;19.83;;
63534;SDS011;55128;50.230;18.944;2022-10-17T19:37:09;23.13;;;17.50;;
63534;SDS011;55128;50.230;18.944;2022-10-17T19:42:09;43.17;;;28.85;;
63534;SDS011;55128;50.230;18.944;2022-10-17T19:47:10;24.10;;;17.92;;
63534;SDS011;55128;50.230;18.944;2022-10-17T19:52:10;25.83;;;18.90;;
63534;SDS011;55128;50.230;18.944;2022-10-17T19:57:11;38.70;;;24.42;;
63534;SDS011;55128;50.230;18.944;2022-10-17T20:02:12;35.50;;;22.20;;
63534;SDS011;55128;50.230;18.944;2022-10-17T20:07:12;34.60;;;22.75;;
63534;SDS011;55128;50.230;18.944;2022-10-17T20:12:13;33.08;;;22.13;;
63534;SDS011;55128;50.230;18.944;2022-10-17T20:17:14;32.63;;;22.02;;
63534;SDS011;55128;50.230;18.944;2022-10-17T20:22:14;31.73;;;20.48;;
63534;SDS011;55128;50.230;18.944;2022-10-17T20:27:15;34.63;;;22.92;;
63534;SDS011;55128;50.230;18.944;2022-10-17T20:32:15;29.00;;;19.35;;
63534;SDS011;55128;50.230;18.944;2022-10-17T20:37:16;32.05;;;21.58;;
63534;SDS011;55128;50.230;18.944;2022-10-17T20:42:16;31.85;;;19.10;;
63534;SDS011;55128;50.230;18.944;2022-10-17T20:47:17;28.80;;;21.63;;
63534;SDS011;55128;50.230;18.944;2022-10-17T20:52:18;36.53;;;23.27;;
63534;SDS011;55128;50.230;18.944;2022-10-17T20:57:18;32.92;;;21.55;;
63534;SDS011;55128;50.230;18.944;2022-10-17T21:02:19;32.25;;;21.20;;
63534;SDS011;55128;50.230;18.944;2022-10-17T21:07:19;27.50;;;19.48;;
63534;SDS011;55128;50.230;18.944;2022-10-17T21:12:21;32.80;;;22.58;;
63534;SDS011;55128;50.230;18.944;2022-10-17T21:17:21;39.67;;;24.15;;
63534;SDS011;55128;50.230;18.944;2022-10-17T21:22:22;33.35;;;23.73;;
63534;SDS011;55128;50.230;18.944;2022-10-17T21:27:23;31.83;;;21.52;;
63534;SDS011;55128;50.230;18.944;2022-10-17T21:32:23;24.48;;;17.25;;
63534;SDS011;55128;50.230;18.944;2022-10-17T21:37:24;25.75;;;18.88;;
63534;SDS011;55128;50.230;18.944;2022-10-17T21:42:25;25.98;;;17.52;;
63534;SDS011;55128;50.230;18.944;2022-10-17T21:47:25;28.75;;;19.23;;
63534;SDS011;55128;50.230;18.944;2022-10-17T21:52:26;24.45;;;16.90;;
63534;SDS011;55128;50.230;18.944;2022-10-17T21:57:26;23.67;;;17.42;;
63534;SDS011;55128;50.230;18.944;2022-10-17T22:02:28;27.60;;;19.20;;
63534;SDS011;55128;50.230;18.944;2022-10-17T22:07:29;35.95;;;21.77;;
63534;SDS011;55128;50.230;18.944;2022-10-17T22:12:29;39.20;;;25.42;;
63534;SDS011;55128;50.230;18.944;2022-10-17T22:17:30;38.05;;;24.77;;
63534;SDS011;55128;50.230;18.944;2022-10-17T22:22:30;40.85;;;25.52;;
63534;SDS011;55128;50.230;18.944;2022-10-17T22:27:31;35.95;;;24.00;;
63534;SDS011;55128;50.230;18.944;2022-10-17T22:32:32;31.13;;;21.60;;
63534;SDS011;55128;50.230;18.944;2022-10-17T22:37:32;29.40;;;20.05;;
63534;SDS011;55128;50.230;18.944;2022-10-17T22:42:33;29.63;;;20.55;;
63534;SDS011;55128;50.230;18.944;2022-10-17T22:47:33;30.13;;;20.38;;
63534;SDS011;55128;50.230;18.944;2022-10-17T22:52:34;31.35;;;20.45;;
63534;SDS011;55128;50.230;18.944;2022-10-17T22:57:35;31.38;;;19.75;;
63534;SDS011;55128;50.230;18.944;2022-10-17T23:02:35;34.35;;;21.63;;
63534;SDS011;55128;50.230;18.944;2022-10-17T23:07:36;35.88;;;21.38;;
63534;SDS011;55128;50.230;18.944;2022-10-17T23:12:37;37.55;;;22.73;;
63534;SDS011;55128;50.230;18.944;2022-10-17T23:17:37;41.28;;;22.27;;
63534;SDS011;55128;50.230;18.944;2022-10-17T23:22:38;28.58;;;19.90;;
63534;SDS011;55128;50.230;18.944;2022-10-17T23:27:39;28.40;;;18.38;;
63534;SDS011;55128;50.230;18.944;2022-10-17T23:32:39;23.50;;;15.13;;
63534;SDS011;55128;50.230;18.944;2022-10-17T23:37:40;25.25;;;17.48;;
63534;SDS011;55128;50.230;18.944;2022-10-17T23:42:41;29.13;;;18.80;;
63534;SDS011;55128;50.230;18.944;2022-10-17T23:47:42;31.65;;;21.23;;
63534;SDS011;55128;50.230;18.944;2022-10-17T23:52:42;41.05;;;27.83;;
63534;SDS011;55128;50.230;18.944;2022-10-17T23:57:43;28.80;;;21.58;;
